sensor_id;sensor_type;location;lat;lon;timestamp;P1;durP1;ratioP1;P2;durP2;ratioP2
7525;SDS011;3804;50.860;6.208;2022-12-07T00:00:51;37.73;;;23.77;;
7525;SDS011;3804;50.860;6.208;2022-12-07T00:03:18;37.23;;;24.13;;
7525;SDS011;3804;50.860;6.208;2022-12-07T00:05:44;41.87;;;25.10;;
7525;SDS011;3804;50.860;6.208;2022-12-07T00:08:11;37.77;;;23.97;;
7525;SDS011;3804;50.860;6.208;2022-12-07T00:10:38;37.57;;;25.23;;
7525;SDS011;3804;50.860;6.208;2022-12-07T00:13:04;35.50;;;24.70;;
7525;SDS011;3804;50.860;6.208;2022-12-07T00:15:34;38.63;;;24.50;;
7525;SDS011;3804;50.860;6.208;2022-12-07T00:18:02;36.67;;;25.90;;
7525;SDS011;3804;50.860;6.208;2022-12-07T00:20:28;34.67;;;24.17;;
7525;SDS011;3804;50.860;6.208;2022-12-07T00:22:55;38.40;;;25.60;;
7525;SDS011;3804;50.860;6.208;2022-12-07T00:25:21;35.83;;;24.03;;
7525;SDS011;3804;50.860;6.208;2022-12-07T00:27:48;36.53;;;23.67;;
7525;SDS011;3804;50.860;6.208;2022-12-07T00:30:15;35.70;;;24.53;;
7525;SDS011;3804;50.860;6.208;2022-12-07T00:32:42;39.10;;;24.40;;
7525;SDS011;3804;50.860;6.208;2022-12-07T00:35:08;37.63;;;25.23;;
7525;SDS011;3804;50.860;6.208;2022-12-07T00:37:35;39.70;;;24.37;;
7525;SDS011;3804;50.860;6.208;2022-12-07T00:40:02;39.53;;;23.93;;
7525;SDS011;3804;50.860;6.208;2022-12-07T00:42:29;36.20;;;25.10;;
7525;SDS011;3804;50.860;6.208;2022-12-07T00:44:55;36.03;;;23.43;;
7525;SDS011;3804;50.860;6.208;2022-12-07T00:47:22;33.83;;;23.40;;
7525;SDS011;3804;50.860;6.208;2022-12-07T00:49:48;38.53;;;23.90;;
7525;SDS011;3804;50.860;6.208;2022-12-07T00:52:15;38.60;;;24.27;;
7525;SDS011;3804;50.860;6.208;2022-12-07T00:54:42;39.57;;;24.53;;
7525;SDS011;3804;50.860;6.208;2022-12-07T00:57:09;34.50;;;23.43;;
7525;SDS011;3804;50.860;6.208;2022-12-07T00:59:35;39.90;;;24.77;;
7525;SDS011;3804;50.860;6.208;2022-12-07T01:02:02;34.57;;;24.47;;
7525;SDS011;3804;50.860;6.208;2022-12-07T01:04:28;39.23;;;24.23;;
7525;SDS011;3804;50.860;6.208;2022-12-07T01:06:56;35.00;;;23.00;;
7525;SDS011;3804;50.860;6.208;2022-12-07T01:09:22;37.97;;;24.23;;
7525;SDS011;3804;50.860;6.208;2022-12-07T01:11:49;43.73;;;25.00;;
7525;SDS011;3804;50.860;6.208;2022-12-07T01:14:16;36.53;;;22.83;;
7525;SDS011;3804;50.860;6.208;2022-12-07T01:16:42;37.57;;;23.50;;
7525;SDS011;3804;50.860;6.208;2022-12-07T01:19:09;36.70;;;24.90;;
7525;SDS011;3804;50.860;6.208;2022-12-07T01:21:35;35.47;;;23.30;;
7525;SDS011;3804;50.860;6.208;2022-12-07T01:24:05;33.63;;;23.40;;
7525;SDS011;3804;50.860;6.208;2022-12-07T01:26:32;39.87;;;24.53;;
7525;SDS011;3804;50.860;6.208;2022-12-07T01:28:58;34.87;;;23.30;;
7525;SDS011;3804;50.860;6.208;2022-12-07T01:31:27;36.53;;;24.00;;
7525;SDS011;3804;50.860;6.208;2022-12-07T01:33:55;33.20;;;23.87;;
7525;SDS011;3804;50.860;6.208;2022-12-07T01:36:23;37.23;;;24.23;;
7525;SDS011;3804;50.860;6.208;2022-12-07T01:38:51;34.00;;;23.90;;
7525;SDS011;3804;50.860;6.208;2022-12-07T01:41:19;37.73;;;25.00;;
7525;SDS011;3804;50.860;6.208;2022-12-07T01:46:32;39.07;;;25.37;;
7525;SDS011;3804;50.860;6.208;2022-12-07T01:48:59;39.97;;;25.40;;
7525;SDS011;3804;50.860;6.208;2022-12-07T01:51:27;36.93;;;25.77;;
7525;SDS011;3804;50.860;6.208;2022-12-07T01:53:54;41.40;;;25.90;;
7525;SDS011;3804;50.860;6.208;2022-12-07T01:56:24;37.97;;;25.13;;
7525;SDS011;3804;50.860;6.208;2022-12-07T01:58:52;42.50;;;26.03;;
7525;SDS011;3804;50.860;6.208;2022-12-07T02:01:20;40.93;;;25.60;;
7525;SDS011;3804;50.860;6.208;2022-12-07T02:03:47;43.17;;;28.03;;
7525;SDS011;3804;50.860;6.208;2022-12-07T02:06:16;48.17;;;28.53;;
7525;SDS011;3804;50.860;6.208;2022-12-07T02:08:43;42.73;;;27.20;;
7525;SDS011;3804;50.860;6.208;2022-12-07T02:11:10;43.93;;;28.20;;
7525;SDS011;3804;50.860;6.208;2022-12-07T02:13:38;49.60;;;29.60;;
7525;SDS011;3804;50.860;6.208;2022-12-07T02:16:15;44.63;;;29.20;;
7525;SDS011;3804;50.860;6.208;2022-12-07T02:18:55;50.50;;;30.03;;
7525;SDS011;3804;50.860;6.208;2022-12-07T02:21:29;46.57;;;28.97;;
7525;SDS011;3804;50.860;6.208;2022-12-07T02:29:33;45.30;;;29.23;;
7525;SDS011;3804;50.860;6.208;2022-12-07T02:32:11;46.90;;;25.67;;
7525;SDS011;3804;50.860;6.208;2022-12-07T02:37:12;50.80;;;26.90;;
7525;SDS011;3804;50.860;6.208;2022-12-07T02:39:42;45.17;;;27.87;;
7525;SDS011;3804;50.860;6.208;2022-12-07T02:42:13;49.93;;;29.27;;
7525;SDS011;3804;50.860;6.208;2022-12-07T02:44:41;49.07;;;29.27;;
7525;SDS011;3804;50.860;6.208;2022-12-07T02:47:09;50.37;;;28.37;;
7525;SDS011;3804;50.860;6.208;2022-12-07T02:49:37;43.20;;;28.07;;
7525;SDS011;3804;50.860;6.208;2022-12-07T02:52:04;43.47;;;27.50;;
7525;SDS011;3804;50.860;6.208;2022-12-07T02:54:31;44.33;;;27.27;;
7525;SDS011;3804;50.860;6.208;2022-12-07T02:59:42;44.33;;;28.00;;
7525;SDS011;3804;50.860;6.208;2022-12-07T03:02:20;44.07;;;26.60;;
7525;SDS011;3804;50.860;6.208;2022-12-07T03:10:17;45.57;;;27.07;;
7525;SDS011;3804;50.860;6.208;2022-12-07T03:12:53;41.27;;;26.03;;
7525;SDS011;3804;50.860;6.208;2022-12-07T03:15:26;43.17;;;26.33;;
7525;SDS011;3804;50.860;6.208;2022-12-07T03:17:54;46.73;;;27.10;;
7525;SDS011;3804;50.860;6.208;2022-12-07T03:20:23;44.33;;;26.20;;
7525;SDS011;3804;50.860;6.208;2022-12-07T03:22:51;46.07;;;27.90;;
7525;SDS011;3804;50.860;6.208;2022-12-07T03:25:19;42.70;;;26.97;;
7525;SDS011;3804;50.860;6.208;2022-12-07T03:27:48;44.90;;;27.43;;
7525;SDS011;3804;50.860;6.208;2022-12-07T03:30:29;43.57;;;27.97;;
7525;SDS011;3804;50.860;6.208;2022-12-07T03:32:59;46.50;;;28.43;;
7525;SDS011;3804;50.860;6.208;2022-12-07T03:35:27;47.47;;;27.17;;
7525;SDS011;3804;50.860;6.208;2022-12-07T03:37:56;46.87;;;27.20;;
7525;SDS011;3804;50.860;6.208;2022-12-07T03:40:30;48.20;;;28.60;;
7525;SDS011;3804;50.860;6.208;2022-12-07T03:42:59;52.73;;;28.57;;
7525;SDS011;3804;50.860;6.208;2022-12-07T03:45:31;46.13;;;27.10;;
7525;SDS011;3804;50.860;6.208;2022-12-07T03:48:05;45.37;;;27.50;;
7525;SDS011;3804;50.860;6.208;2022-12-07T03:53:05;47.47;;;27.17;;
7525;SDS011;3804;50.860;6.208;2022-12-07T03:55:35;47.13;;;28.43;;
7525;SDS011;3804;50.860;6.208;2022-12-07T03:58:09;45.50;;;28.77;;
7525;SDS011;3804;50.860;6.208;2022-12-07T04:00:37;44.57;;;27.33;;
7525;SDS011;3804;50.860;6.208;2022-12-07T04:03:03;43.47;;;26.77;;
7525;SDS011;3804;50.860;6.208;2022-12-07T04:05:30;48.33;;;27.47;;
7525;SDS011;3804;50.860;6.208;2022-12-07T04:07:57;43.63;;;27.27;;
7525;SDS011;3804;50.860;6.208;2022-12-07T04:10:23;45.90;;;28.07;;
7525;SDS011;3804;50.860;6.208;2022-12-07T04:12:50;46.47;;;27.97;;
7525;SDS011;3804;50.860;6.208;2022-12-07T04:15:16;46.20;;;25.60;;
7525;SDS011;3804;50.860;6.208;2022-12-07T04:17:43;42.10;;;26.20;;
7525;SDS011;3804;50.860;6.208;2022-12-07T04:20:10;48.67;;;28.03;;
7525;SDS011;3804;50.860;6.208;2022-12-07T04:22:37;48.67;;;26.80;;
7525;SDS011;3804;50.860;6.208;2022-12-07T04:25:03;48.43;;;26.70;;
7525;SDS011;3804;50.860;6.208;2022-12-07T04:27:30;51.93;;;28.53;;
7525;SDS011;3804;50.860;6.208;2022-12-07T04:29:57;46.43;;;27.30;;
7525;SDS011;3804;50.860;6.208;2022-12-07T04:32:23;46.60;;;26.70;;
7525;SDS011;3804;50.860;6.208;2022-12-07T04:34:50;47.83;;;26.03;;
7525;SDS011;3804;50.860;6.208;2022-12-07T04:37:21;49.17;;;27.33;;
7525;SDS011;3804;50.860;6.208;2022-12-07T04:39:48;45.60;;;26.03;;
7525;SDS011;3804;50.860;6.208;2022-12-07T04:42:14;43.13;;;25.50;;
7525;SDS011;3804;50.860;6.208;2022-12-07T04:44:41;44.00;;;26.20;;
7525;SDS011;3804;50.860;6.208;2022-12-07T04:47:08;49.30;;;26.77;;
7525;SDS011;3804;50.860;6.208;2022-12-07T04:49:35;45.53;;;26.43;;
7525;SDS011;3804;50.860;6.208;2022-12-07T04:52:01;45.23;;;26.23;;
7525;SDS011;3804;50.860;6.208;2022-12-07T04:54:28;43.17;;;26.07;;
7525;SDS011;3804;50.860;6.208;2022-12-07T04:56:55;51.47;;;25.57;;
7525;SDS011;3804;50.860;6.208;2022-12-07T04:59:21;48.00;;;27.27;;
7525;SDS011;3804;50.860;6.208;2022-12-07T05:01:48;46.33;;;26.10;;
7525;SDS011;3804;50.860;6.208;2022-12-07T05:04:15;47.93;;;26.63;;
7525;SDS011;3804;50.860;6.208;2022-12-07T05:06:42;44.33;;;26.47;;
7525;SDS011;3804;50.860;6.208;2022-12-07T05:09:09;49.43;;;27.10;;
7525;SDS011;3804;50.860;6.208;2022-12-07T05:11:35;46.73;;;26.70;;
7525;SDS011;3804;50.860;6.208;2022-12-07T05:14:15;44.97;;;26.07;;
7525;SDS011;3804;50.860;6.208;2022-12-07T05:16:43;46.77;;;26.23;;
7525;SDS011;3804;50.860;6.208;2022-12-07T05:19:10;47.37;;;27.40;;
7525;SDS011;3804;50.860;6.208;2022-12-07T05:21:37;43.57;;;26.83;;
7525;SDS011;3804;50.860;6.208;2022-12-07T05:24:06;46.47;;;27.63;;
7525;SDS011;3804;50.860;6.208;2022-12-07T05:26:33;46.53;;;26.50;;
7525;SDS011;3804;50.860;6.208;2022-12-07T05:28:59;46.20;;;26.20;;
7525;SDS011;3804;50.860;6.208;2022-12-07T05:31:26;44.73;;;25.57;;
7525;SDS011;3804;50.860;6.208;2022-12-07T05:33:53;50.10;;;25.93;;
7525;SDS011;3804;50.860;6.208;2022-12-07T05:36:20;46.20;;;27.50;;
7525;SDS011;3804;50.860;6.208;2022-12-07T05:38:46;48.60;;;27.67;;
7525;SDS011;3804;50.860;6.208;2022-12-07T05:41:14;43.80;;;25.33;;
7525;SDS011;3804;50.860;6.208;2022-12-07T05:44:00;43.03;;;24.57;;
7525;SDS011;3804;50.860;6.208;2022-12-07T05:46:26;49.17;;;26.47;;
7525;SDS011;3804;50.860;6.208;2022-12-07T05:48:53;43.20;;;24.13;;
7525;SDS011;3804;50.860;6.208;2022-12-07T05:51:20;41.90;;;25.17;;
7525;SDS011;3804;50.860;6.208;2022-12-07T05:53:46;45.13;;;25.13;;
7525;SDS011;3804;50.860;6.208;2022-12-07T05:56:13;46.90;;;25.83;;
7525;SDS011;3804;50.860;6.208;2022-12-07T05:58:40;49.77;;;26.57;;
7525;SDS011;3804;50.860;6.208;2022-12-07T06:01:25;43.00;;;24.93;;
7525;SDS011;3804;50.860;6.208;2022-12-07T06:03:52;43.80;;;25.10;;
7525;SDS011;3804;50.860;6.208;2022-12-07T06:06:18;46.37;;;25.03;;
7525;SDS011;3804;50.860;6.208;2022-12-07T06:08:45;46.40;;;25.37;;
7525;SDS011;3804;50.860;6.208;2022-12-07T06:11:12;41.17;;;23.60;;
7525;SDS011;3804;50.860;6.208;2022-12-07T06:13:57;42.00;;;24.23;;
7525;SDS011;3804;50.860;6.208;2022-12-07T06:16:24;39.37;;;24.00;;
7525;SDS011;3804;50.860;6.208;2022-12-07T06:18:50;43.30;;;24.57;;
7525;SDS011;3804;50.860;6.208;2022-12-07T06:21:17;40.23;;;24.53;;
7525;SDS011;3804;50.860;6.208;2022-12-07T06:23:44;45.47;;;25.53;;
7525;SDS011;3804;50.860;6.208;2022-12-07T06:26:12;45.70;;;25.60;;
7525;SDS011;3804;50.860;6.208;2022-12-07T06:28:38;42.70;;;25.40;;
7525;SDS011;3804;50.860;6.208;2022-12-07T06:31:05;47.07;;;26.70;;
7525;SDS011;3804;50.860;6.208;2022-12-07T06:33:39;40.57;;;23.63;;
7525;SDS011;3804;50.860;6.208;2022-12-07T06:36:05;35.53;;;22.70;;
7525;SDS011;3804;50.860;6.208;2022-12-07T06:38:32;40.50;;;22.80;;
7525;SDS011;3804;50.860;6.208;2022-12-07T06:40:59;40.37;;;23.07;;
7525;SDS011;3804;50.860;6.208;2022-12-07T06:43:25;42.73;;;23.20;;
7525;SDS011;3804;50.860;6.208;2022-12-07T06:45:52;40.30;;;23.40;;
7525;SDS011;3804;50.860;6.208;2022-12-07T06:48:19;42.03;;;23.50;;
7525;SDS011;3804;50.860;6.208;2022-12-07T06:50:45;40.20;;;23.27;;
7525;SDS011;3804;50.860;6.208;2022-12-07T06:53:19;37.10;;;22.83;;
7525;SDS011;3804;50.860;6.208;2022-12-07T06:55:46;43.80;;;24.03;;
7525;SDS011;3804;50.860;6.208;2022-12-07T06:58:13;41.23;;;23.33;;
7525;SDS011;3804;50.860;6.208;2022-12-07T07:00:39;40.10;;;23.73;;
7525;SDS011;3804;50.860;6.208;2022-12-07T07:03:07;43.33;;;24.90;;
7525;SDS011;3804;50.860;6.208;2022-12-07T07:05:33;43.70;;;23.90;;
7525;SDS011;3804;50.860;6.208;2022-12-07T07:08:00;40.93;;;23.70;;
7525;SDS011;3804;50.860;6.208;2022-12-07T07:10:47;43.40;;;24.83;;
7525;SDS011;3804;50.860;6.208;2022-12-07T07:13:13;48.87;;;26.47;;
7525;SDS011;3804;50.860;6.208;2022-12-07T07:15:40;42.27;;;26.23;;
7525;SDS011;3804;50.860;6.208;2022-12-07T07:18:07;52.40;;;26.80;;
7525;SDS011;3804;50.860;6.208;2022-12-07T07:20:33;48.33;;;27.33;;
7525;SDS011;3804;50.860;6.208;2022-12-07T07:23:00;50.93;;;29.20;;
7525;SDS011;3804;50.860;6.208;2022-12-07T07:25:27;53.00;;;28.07;;
7525;SDS011;3804;50.860;6.208;2022-12-07T07:27:53;46.13;;;25.53;;
7525;SDS011;3804;50.860;6.208;2022-12-07T07:30:23;46.93;;;26.83;;
7525;SDS011;3804;50.860;6.208;2022-12-07T07:32:50;45.23;;;26.03;;
7525;SDS011;3804;50.860;6.208;2022-12-07T07:35:20;44.80;;;25.97;;
7525;SDS011;3804;50.860;6.208;2022-12-07T07:37:46;53.00;;;27.17;;
7525;SDS011;3804;50.860;6.208;2022-12-07T07:40:13;45.87;;;27.27;;
7525;SDS011;3804;50.860;6.208;2022-12-07T07:42:40;48.07;;;28.83;;
7525;SDS011;3804;50.860;6.208;2022-12-07T07:45:07;49.73;;;27.93;;
7525;SDS011;3804;50.860;6.208;2022-12-07T07:47:33;43.93;;;26.83;;
7525;SDS011;3804;50.860;6.208;2022-12-07T07:50:00;47.03;;;26.97;;
7525;SDS011;3804;50.860;6.208;2022-12-07T07:52:28;50.80;;;28.23;;
7525;SDS011;3804;50.860;6.208;2022-12-07T07:54:55;47.07;;;26.23;;
7525;SDS011;3804;50.860;6.208;2022-12-07T07:57:22;47.30;;;26.93;;
7525;SDS011;3804;50.860;6.208;2022-12-07T07:59:48;49.40;;;28.00;;
7525;SDS011;3804;50.860;6.208;2022-12-07T08:02:16;49.20;;;27.27;;
7525;SDS011;3804;50.860;6.208;2022-12-07T08:04:43;47.23;;;26.40;;
7525;SDS011;3804;50.860;6.208;2022-12-07T08:07:11;52.93;;;28.83;;
7525;SDS011;3804;50.860;6.208;2022-12-07T08:09:38;50.60;;;27.63;;
7525;SDS011;3804;50.860;6.208;2022-12-07T08:12:05;46.37;;;27.33;;
7525;SDS011;3804;50.860;6.208;2022-12-07T08:14:31;47.47;;;27.63;;
7525;SDS011;3804;50.860;6.208;2022-12-07T08:16:58;46.10;;;27.17;;
7525;SDS011;3804;50.860;6.208;2022-12-07T08:19:25;45.50;;;25.47;;
7525;SDS011;3804;50.860;6.208;2022-12-07T08:21:52;46.17;;;26.80;;
7525;SDS011;3804;50.860;6.208;2022-12-07T08:24:18;45.57;;;26.83;;
7525;SDS011;3804;50.860;6.208;2022-12-07T08:26:45;47.97;;;27.50;;
7525;SDS011;3804;50.860;6.208;2022-12-07T08:29:12;46.70;;;27.27;;
7525;SDS011;3804;50.860;6.208;2022-12-07T08:31:38;46.63;;;26.87;;
7525;SDS011;3804;50.860;6.208;2022-12-07T08:34:06;46.73;;;27.63;;
7525;SDS011;3804;50.860;6.208;2022-12-07T08:36:32;43.53;;;25.53;;
7525;SDS011;3804;50.860;6.208;2022-12-07T08:38:59;41.10;;;24.67;;
7525;SDS011;3804;50.860;6.208;2022-12-07T08:41:46;42.50;;;25.70;;
7525;SDS011;3804;50.860;6.208;2022-12-07T08:44:12;38.40;;;24.50;;
7525;SDS011;3804;50.860;6.208;2022-12-07T08:47:13;43.03;;;24.83;;
7525;SDS011;3804;50.860;6.208;2022-12-07T08:49:41;37.57;;;24.20;;
7525;SDS011;3804;50.860;6.208;2022-12-07T08:52:09;38.33;;;24.20;;
7525;SDS011;3804;50.860;6.208;2022-12-07T08:54:36;43.87;;;24.23;;
7525;SDS011;3804;50.860;6.208;2022-12-07T08:57:05;42.93;;;23.57;;
7525;SDS011;3804;50.860;6.208;2022-12-07T08:59:33;41.70;;;25.87;;
7525;SDS011;3804;50.860;6.208;2022-12-07T09:02:00;41.00;;;22.70;;
7525;SDS011;3804;50.860;6.208;2022-12-07T09:04:27;39.53;;;22.60;;
7525;SDS011;3804;50.860;6.208;2022-12-07T09:06:54;36.80;;;22.43;;
7525;SDS011;3804;50.860;6.208;2022-12-07T09:09:21;36.90;;;21.70;;
7525;SDS011;3804;50.860;6.208;2022-12-07T09:11:48;38.17;;;21.47;;
7525;SDS011;3804;50.860;6.208;2022-12-07T09:14:15;36.80;;;21.57;;
7525;SDS011;3804;50.860;6.208;2022-12-07T09:16:41;38.23;;;20.27;;
7525;SDS011;3804;50.860;6.208;2022-12-07T09:19:08;33.13;;;20.20;;
7525;SDS011;3804;50.860;6.208;2022-12-07T09:21:35;33.67;;;20.77;;
7525;SDS011;3804;50.860;6.208;2022-12-07T09:24:01;33.03;;;21.00;;
7525;SDS011;3804;50.860;6.208;2022-12-07T09:26:28;35.13;;;20.17;;
7525;SDS011;3804;50.860;6.208;2022-12-07T09:28:55;35.57;;;20.87;;
7525;SDS011;3804;50.860;6.208;2022-12-07T09:31:21;33.77;;;22.33;;
7525;SDS011;3804;50.860;6.208;2022-12-07T09:33:57;34.73;;;21.87;;
7525;SDS011;3804;50.860;6.208;2022-12-07T09:36:25;37.30;;;21.67;;
7525;SDS011;3804;50.860;6.208;2022-12-07T09:38:52;39.07;;;22.33;;
7525;SDS011;3804;50.860;6.208;2022-12-07T09:41:19;38.50;;;22.27;;
7525;SDS011;3804;50.860;6.208;2022-12-07T09:43:47;37.73;;;21.70;;
7525;SDS011;3804;50.860;6.208;2022-12-07T09:46:15;36.47;;;20.47;;
7525;SDS011;3804;50.860;6.208;2022-12-07T09:48:43;39.57;;;21.53;;
7525;SDS011;3804;50.860;6.208;2022-12-07T09:51:14;36.90;;;22.13;;
7525;SDS011;3804;50.860;6.208;2022-12-07T09:53:49;34.80;;;21.23;;
7525;SDS011;3804;50.860;6.208;2022-12-07T09:56:17;38.30;;;21.67;;
7525;SDS011;3804;50.860;6.208;2022-12-07T09:58:44;43.47;;;22.77;;
7525;SDS011;3804;50.860;6.208;2022-12-07T10:01:16;36.00;;;21.70;;
7525;SDS011;3804;50.860;6.208;2022-12-07T10:03:50;38.27;;;23.27;;
7525;SDS011;3804;50.860;6.208;2022-12-07T10:06:17;39.93;;;23.17;;
7525;SDS011;3804;50.860;6.208;2022-12-07T10:08:44;38.50;;;21.53;;
7525;SDS011;3804;50.860;6.208;2022-12-07T10:11:11;40.83;;;23.60;;
7525;SDS011;3804;50.860;6.208;2022-12-07T10:13:39;39.83;;;22.47;;
7525;SDS011;3804;50.860;6.208;2022-12-07T10:16:07;39.03;;;22.63;;
7525;SDS011;3804;50.860;6.208;2022-12-07T10:18:54;31.47;;;21.67;;
7525;SDS011;3804;50.860;6.208;2022-12-07T10:21:24;39.10;;;23.87;;
7525;SDS011;3804;50.860;6.208;2022-12-07T10:24:01;37.03;;;23.00;;
7525;SDS011;3804;50.860;6.208;2022-12-07T10:28:56;34.50;;;22.20;;
7525;SDS011;3804;50.860;6.208;2022-12-07T10:31:25;34.53;;;22.83;;
7525;SDS011;3804;50.860;6.208;2022-12-07T10:33:56;37.13;;;23.47;;
7525;SDS011;3804;50.860;6.208;2022-12-07T10:36:27;32.83;;;21.10;;
7525;SDS011;3804;50.860;6.208;2022-12-07T10:44:21;34.50;;;23.47;;
7525;SDS011;3804;50.860;6.208;2022-12-07T10:56:48;36.03;;;22.63;;
7525;SDS011;3804;50.860;6.208;2022-12-07T11:01:57;28.73;;;19.37;;
7525;SDS011;3804;50.860;6.208;2022-12-07T11:04:35;34.27;;;21.93;;
7525;SDS011;3804;50.860;6.208;2022-12-07T11:07:10;31.70;;;20.47;;
7525;SDS011;3804;50.860;6.208;2022-12-07T11:09:47;32.10;;;19.10;;
7525;SDS011;3804;50.860;6.208;2022-12-07T11:23:20;28.40;;;19.97;;
7525;SDS011;3804;50.860;6.208;2022-12-07T11:30:55;26.30;;;19.43;;
7525;SDS011;3804;50.860;6.208;2022-12-07T11:33:34;24.60;;;17.30;;
7525;SDS011;3804;50.860;6.208;2022-12-07T11:38:47;24.10;;;16.23;;
7525;SDS011;3804;50.860;6.208;2022-12-07T11:41:20;27.27;;;17.40;;
7525;SDS011;3804;50.860;6.208;2022-12-07T11:46:15;23.83;;;17.97;;
7525;SDS011;3804;50.860;6.208;2022-12-07T11:51:25;25.73;;;17.63;;
7525;SDS011;3804;50.860;6.208;2022-12-07T11:54:00;25.77;;;16.17;;
7525;SDS011;3804;50.860;6.208;2022-12-07T11:56:28;21.97;;;14.87;;
7525;SDS011;3804;50.860;6.208;2022-12-07T11:59:08;23.03;;;15.50;;
7525;SDS011;3804;50.860;6.208;2022-12-07T12:06:37;20.80;;;13.40;;
7525;SDS011;3804;50.860;6.208;2022-12-07T12:09:06;23.60;;;14.13;;
7525;SDS011;3804;50.860;6.208;2022-12-07T12:12:11;25.20;;;15.97;;
7525;SDS011;3804;50.860;6.208;2022-12-07T12:15:04;20.07;;;13.43;;
7525;SDS011;3804;50.860;6.208;2022-12-07T12:22:39;23.33;;;17.03;;
7525;SDS011;3804;50.860;6.208;2022-12-07T12:25:21;27.87;;;21.03;;
7525;SDS011;3804;50.860;6.208;2022-12-07T12:27:50;21.90;;;16.23;;
7525;SDS011;3804;50.860;6.208;2022-12-07T12:32:54;17.90;;;13.23;;
7525;SDS011;3804;50.860;6.208;2022-12-07T12:37:54;15.50;;;11.67;;
7525;SDS011;3804;50.860;6.208;2022-12-07T12:42:49;20.80;;;12.23;;
7525;SDS011;3804;50.860;6.208;2022-12-07T12:45:21;13.90;;;10.73;;
7525;SDS011;3804;50.860;6.208;2022-12-07T12:50:20;16.37;;;10.53;;
7525;SDS011;3804;50.860;6.208;2022-12-07T12:52:49;23.43;;;11.40;;
7525;SDS011;3804;50.860;6.208;2022-12-07T12:55:18;15.40;;;11.17;;
7525;SDS011;3804;50.860;6.208;2022-12-07T12:57:48;12.40;;;9.67;;
7525;SDS011;3804;50.860;6.208;2022-12-07T13:00:34;16.23;;;9.87;;
7525;SDS011;3804;50.860;6.208;2022-12-07T13:03:00;15.67;;;10.30;;
7525;SDS011;3804;50.860;6.208;2022-12-07T13:05:28;13.57;;;9.33;;
7525;SDS011;3804;50.860;6.208;2022-12-07T13:08:00;19.83;;;10.23;;
7525;SDS011;3804;50.860;6.208;2022-12-07T13:12:59;15.03;;;9.17;;
7525;SDS011;3804;50.860;6.208;2022-12-07T13:15:33;17.90;;;10.03;;
7525;SDS011;3804;50.860;6.208;2022-12-07T13:18:00;17.97;;;9.70;;
7525;SDS011;3804;50.860;6.208;2022-12-07T13:20:42;12.43;;;9.37;;
7525;SDS011;3804;50.860;6.208;2022-12-07T13:23:09;11.87;;;9.10;;
7525;SDS011;3804;50.860;6.208;2022-12-07T13:25:37;13.53;;;8.70;;
7525;SDS011;3804;50.860;6.208;2022-12-07T13:28:09;13.00;;;8.37;;
7525;SDS011;3804;50.860;6.208;2022-12-07T13:30:57;18.10;;;9.67;;
7525;SDS011;3804;50.860;6.208;2022-12-07T13:33:25;13.83;;;9.17;;
7525;SDS011;3804;50.860;6.208;2022-12-07T13:35:54;15.10;;;10.40;;
7525;SDS011;3804;50.860;6.208;2022-12-07T13:38:25;17.07;;;9.77;;
7525;SDS011;3804;50.860;6.208;2022-12-07T13:41:13;14.03;;;10.00;;
7525;SDS011;3804;50.860;6.208;2022-12-07T13:43:48;15.83;;;10.27;;
7525;SDS011;3804;50.860;6.208;2022-12-07T13:46:16;14.67;;;10.73;;
7525;SDS011;3804;50.860;6.208;2022-12-07T13:54:10;15.50;;;11.37;;
7525;SDS011;3804;50.860;6.208;2022-12-07T13:56:38;17.57;;;11.27;;
7525;SDS011;3804;50.860;6.208;2022-12-07T13:59:16;13.23;;;10.60;;
7525;SDS011;3804;50.860;6.208;2022-12-07T14:01:45;17.67;;;10.83;;
7525;SDS011;3804;50.860;6.208;2022-12-07T14:04:29;16.10;;;11.63;;
7525;SDS011;3804;50.860;6.208;2022-12-07T14:06:56;24.47;;;11.67;;
7525;SDS011;3804;50.860;6.208;2022-12-07T14:09:23;16.97;;;10.50;;
7525;SDS011;3804;50.860;6.208;2022-12-07T14:11:55;13.53;;;10.67;;
7525;SDS011;3804;50.860;6.208;2022-12-07T14:17:15;16.37;;;11.57;;
7525;SDS011;3804;50.860;6.208;2022-12-07T14:19:44;15.17;;;12.00;;
7525;SDS011;3804;50.860;6.208;2022-12-07T14:22:18;18.53;;;12.40;;
7525;SDS011;3804;50.860;6.208;2022-12-07T14:24:45;17.03;;;12.53;;
7525;SDS011;3804;50.860;6.208;2022-12-07T14:27:22;18.80;;;12.33;;
7525;SDS011;3804;50.860;6.208;2022-12-07T14:29:52;15.87;;;12.10;;
7525;SDS011;3804;50.860;6.208;2022-12-07T14:32:23;17.30;;;12.40;;
7525;SDS011;3804;50.860;6.208;2022-12-07T14:35:01;20.03;;;14.23;;
7525;SDS011;3804;50.860;6.208;2022-12-07T14:37:30;16.90;;;12.60;;
7525;SDS011;3804;50.860;6.208;2022-12-07T14:39:57;17.07;;;13.47;;
7525;SDS011;3804;50.860;6.208;2022-12-07T14:42:26;19.80;;;13.27;;
7525;SDS011;3804;50.860;6.208;2022-12-07T14:44:54;22.77;;;14.57;;
7525;SDS011;3804;50.860;6.208;2022-12-07T14:47:21;17.40;;;13.00;;
7525;SDS011;3804;50.860;6.208;2022-12-07T14:50:10;20.83;;;13.97;;
7525;SDS011;3804;50.860;6.208;2022-12-07T14:52:38;30.73;;;13.50;;
7525;SDS011;3804;50.860;6.208;2022-12-07T14:55:26;22.50;;;13.87;;
7525;SDS011;3804;50.860;6.208;2022-12-07T14:57:54;20.20;;;13.23;;
7525;SDS011;3804;50.860;6.208;2022-12-07T15:00:21;18.47;;;13.30;;
7525;SDS011;3804;50.860;6.208;2022-12-07T15:02:49;19.17;;;12.73;;
7525;SDS011;3804;50.860;6.208;2022-12-07T15:05:16;18.43;;;13.80;;
7525;SDS011;3804;50.860;6.208;2022-12-07T15:07:44;20.03;;;13.47;;
7525;SDS011;3804;50.860;6.208;2022-12-07T15:10:22;17.37;;;12.97;;
7525;SDS011;3804;50.860;6.208;2022-12-07T15:12:50;20.83;;;12.90;;
7525;SDS011;3804;50.860;6.208;2022-12-07T15:15:18;18.63;;;13.10;;
7525;SDS011;3804;50.860;6.208;2022-12-07T15:17:44;17.83;;;12.13;;
7525;SDS011;3804;50.860;6.208;2022-12-07T15:20:12;17.20;;;12.43;;
7525;SDS011;3804;50.860;6.208;2022-12-07T15:22:40;19.17;;;12.80;;
7525;SDS011;3804;50.860;6.208;2022-12-07T15:25:08;26.27;;;13.93;;
7525;SDS011;3804;50.860;6.208;2022-12-07T15:27:35;20.50;;;12.87;;
7525;SDS011;3804;50.860;6.208;2022-12-07T15:30:02;17.57;;;11.40;;
7525;SDS011;3804;50.860;6.208;2022-12-07T15:32:29;18.87;;;12.97;;
7525;SDS011;3804;50.860;6.208;2022-12-07T15:34:57;20.43;;;12.60;;
7525;SDS011;3804;50.860;6.208;2022-12-07T15:37:24;18.73;;;12.80;;
7525;SDS011;3804;50.860;6.208;2022-12-07T15:39:51;20.93;;;13.27;;
7525;SDS011;3804;50.860;6.208;2022-12-07T15:42:18;27.63;;;13.10;;
7525;SDS011;3804;50.860;6.208;2022-12-07T15:44:45;22.50;;;12.47;;
7525;SDS011;3804;50.860;6.208;2022-12-07T15:47:33;20.80;;;12.40;;
7525;SDS011;3804;50.860;6.208;2022-12-07T15:50:20;21.33;;;13.37;;
7525;SDS011;3804;50.860;6.208;2022-12-07T15:52:47;18.57;;;12.80;;
7525;SDS011;3804;50.860;6.208;2022-12-07T15:55:13;19.10;;;14.00;;
7525;SDS011;3804;50.860;6.208;2022-12-07T15:57:40;17.50;;;12.37;;
7525;SDS011;3804;50.860;6.208;2022-12-07T16:00:07;18.30;;;12.70;;
7525;SDS011;3804;50.860;6.208;2022-12-07T16:02:36;20.97;;;13.93;;
7525;SDS011;3804;50.860;6.208;2022-12-07T16:05:05;18.33;;;12.90;;
7525;SDS011;3804;50.860;6.208;2022-12-07T16:07:32;20.40;;;13.10;;
7525;SDS011;3804;50.860;6.208;2022-12-07T16:09:59;23.37;;;13.87;;
7525;SDS011;3804;50.860;6.208;2022-12-07T16:12:26;14.87;;;11.60;;
7525;SDS011;3804;50.860;6.208;2022-12-07T16:14:52;15.77;;;11.90;;
7525;SDS011;3804;50.860;6.208;2022-12-07T16:17:19;19.73;;;11.53;;
7525;SDS011;3804;50.860;6.208;2022-12-07T16:19:46;16.17;;;12.20;;
7525;SDS011;3804;50.860;6.208;2022-12-07T16:22:13;18.87;;;12.13;;
7525;SDS011;3804;50.860;6.208;2022-12-07T16:24:39;17.13;;;12.43;;
7525;SDS011;3804;50.860;6.208;2022-12-07T16:27:06;20.70;;;11.60;;
7525;SDS011;3804;50.860;6.208;2022-12-07T16:29:33;17.43;;;10.60;;
7525;SDS011;3804;50.860;6.208;2022-12-07T16:32:00;15.40;;;11.10;;
7525;SDS011;3804;50.860;6.208;2022-12-07T16:34:26;17.17;;;12.33;;
7525;SDS011;3804;50.860;6.208;2022-12-07T16:36:53;21.53;;;13.97;;